Time;durP1;ratioP1;P1;durP2;ratioP2;P2;SDS_P1;SDS_P2;PMS_P1;PMS_P2;Temp;Humidity;BMP_temperature;BMP_pressure;BME280_temperature;BME280_humidity;BME280_pressure;Samples;Min_cycle;Max_cycle;Signal;HPM_P1;HPM_P2
2023/05/17 00:01:04;;;;;;;9.95;3.05;;;10.90;99.90;;;;;;6135448;23;20005;-83
2023/05/17 00:03:30;;;;;;;9.13;3.47;;;10.90;99.90;;;;;;6136439;23;20005;-83
2023/05/17 00:05:55;;;;;;;9.40;3.42;;;10.90;99.90;;;;;;6135653;23;20064;-82
2023/05/17 00:08:21;;;;;;;9.50;3.53;;;10.90;99.90;;;;;;6136023;23;20020;-83
2023/05/17 00:10:47;;;;;;;8.75;3.25;;;10.90;99.90;;;;;;6160690;23;20108;-83
2023/05/17 00:13:12;;;;;;;7.07;2.97;;;10.90;99.90;;;;;;6167163;23;20069;-83
2023/05/17 00:15:38;;;;;;;11.07;3.17;;;10.90;99.90;;;;;;6184946;23;20008;-82
2023/05/17 00:18:03;;;;;;;10.40;3.35;;;10.80;99.90;;;;;;6188099;23;19992;-82
2023/05/17 00:20:29;;;;;;;10.82;3.33;;;10.80;99.90;;;;;;6161875;23;19985;-84
2023/05/17 00:22:55;;;;;;;9.82;3.42;;;10.80;99.90;;;;;;6163328;23;19989;-84
2023/05/17 00:25:20;;;;;;;9.15;3.17;;;10.80;99.90;;;;;;6151414;23;20060;-84
2023/05/17 00:27:46;;;;;;;9.07;3.13;;;10.80;99.90;;;;;;6161340;23;20019;-84
2023/05/17 00:30:12;;;;;;;11.38;3.70;;;10.80;99.90;;;;;;6159894;23;20017;-84
2023/05/17 00:32:37;;;;;;;9.88;4.13;;;10.80;99.90;;;;;;6159850;23;20023;-83
2023/05/17 00:35:03;;;;;;;9.05;3.50;;;10.70;99.90;;;;;;6135272;23;20005;-84
2023/05/17 00:37:29;;;;;;;8.25;3.55;;;10.60;99.90;;;;;;6135171;23;20005;-84
2023/05/17 00:39:55;;;;;;;8.07;3.40;;;10.60;99.90;;;;;;6135666;23;20005;-83
2023/05/17 00:42:20;;;;;;;11.98;3.50;;;10.60;99.90;;;;;;6135183;23;20453;-84
2023/05/17 00:44:46;;;;;;;7.53;3.78;;;10.50;99.90;;;;;;6131375;23;20009;-83
2023/05/17 00:47:12;;;;;;;10.77;3.90;;;10.50;99.90;;;;;;6157120;23;20427;-83
2023/05/17 00:49:37;;;;;;;10.02;3.97;;;10.50;99.90;;;;;;6134692;23;20005;-83
2023/05/17 00:52:03;;;;;;;12.10;3.90;;;10.40;99.90;;;;;;6159356;23;20012;-83
2023/05/17 00:54:30;;;;;;;12.13;3.58;;;10.40;99.90;;;;;;6159452;23;20395;-83
2023/05/17 00:56:56;;;;;;;11.00;3.65;;;10.40;99.90;;;;;;6134872;23;20011;-83
2023/05/17 00:59:23;;;;;;;9.70;3.92;;;10.40;99.90;;;;;;6159181;23;20036;-83
2023/05/17 01:01:50;;;;;;;9.68;3.47;;;10.40;99.90;;;;;;6135099;23;20419;-83
2023/05/17 01:04:15;;;;;;;10.88;3.55;;;10.40;99.90;;;;;;6134638;23;20029;-83
2023/05/17 01:06:41;;;;;;;8.43;4.00;;;10.40;99.90;;;;;;6159422;23;20012;-83
2023/05/17 01:09:08;;;;;;;9.13;4.05;;;10.40;99.90;;;;;;6134257;23;20031;-83
2023/05/17 01:11:55;;;;;;;10.95;4.10;;;10.40;99.90;;;;;;6110726;23;20009;-83
2023/05/17 01:14:59;;;;;;;9.13;4.65;;;10.40;99.90;;;;;;6158995;23;20092;-84
2023/05/17 01:17:54;;;;;;;10.55;3.88;;;10.40;99.90;;;;;;6041663;23;20007;-84
2023/05/17 01:20:27;;;;;;;10.23;4.22;;;10.40;99.90;;;;;;6041136;23;20014;-84
2023/05/17 01:23:45;;;;;;;14.32;4.47;;;10.40;99.90;;;;;;6152354;23;20002;-83
2023/05/17 01:26:23;;;;;;;12.63;4.43;;;10.40;99.90;;;;;;6120379;23;20008;-84
2023/05/17 01:28:52;;;;;;;10.85;3.78;;;10.40;99.90;;;;;;6184819;23;20009;-82
2023/05/17 01:31:19;;;;;;;9.45;4.22;;;10.40;99.90;;;;;;6136384;23;20013;-84
2023/05/17 01:33:45;;;;;;;11.77;3.92;;;10.40;99.90;;;;;;6137349;23;20005;-84
2023/05/17 01:36:11;;;;;;;11.25;4.47;;;10.40;99.90;;;;;;6112372;23;20005;-84
2023/05/17 01:38:36;;;;;;;9.13;3.83;;;10.40;99.90;;;;;;6136990;23;20099;-84
2023/05/17 01:41:14;;;;;;;12.07;3.80;;;10.40;99.90;;;;;;6137274;23;20504;-84
2023/05/17 01:44:04;;;;;;;12.05;4.05;;;10.40;99.90;;;;;;6162267;23;20407;-84
2023/05/17 01:46:40;;;;;;;8.55;3.92;;;10.40;99.90;;;;;;6188820;23;20028;-84
2023/05/17 01:49:08;;;;;;;8.95;4.03;;;10.40;99.90;;;;;;6191228;23;20028;-84
2023/05/17 01:51:45;;;;;;;9.20;3.85;;;10.30;99.90;;;;;;6169642;23;20007;-83
2023/05/17 01:54:12;;;;;;;8.65;3.65;;;10.40;99.90;;;;;;6188808;23;20025;-82
2023/05/17 01:56:42;;;;;;;10.82;4.13;;;10.40;99.90;;;;;;6187655;23;20001;-84
2023/05/17 01:59:13;;;;;;;7.22;4.07;;;10.40;99.90;;;;;;6191148;23;20064;-84
2023/05/17 02:01:40;;;;;;;10.25;4.47;;;10.40;99.90;;;;;;6187376;23;20001;-84
2023/05/17 02:04:06;;;;;;;11.07;3.95;;;10.50;99.90;;;;;;6186408;23;20009;-84
2023/05/17 02:06:31;;;;;;;8.77;4.13;;;10.50;99.90;;;;;;6161435;23;20309;-84
2023/05/17 02:08:59;;;;;;;10.05;4.00;;;10.50;99.90;;;;;;6161479;23;20111;-84
2023/05/17 02:11:25;;;;;;;9.52;4.18;;;10.60;99.90;;;;;;6161649;23;20088;-84
2023/05/17 02:13:51;;;;;;;10.57;4.13;;;10.60;99.90;;;;;;6187243;23;20419;-84
2023/05/17 02:16:16;;;;;;;10.73;4.38;;;10.70;99.90;;;;;;6161094;23;20343;-85
2023/05/17 02:18:42;;;;;;;10.40;4.18;;;10.70;99.90;;;;;;6136379;23;20005;-85
2023/05/17 02:21:07;;;;;;;12.48;4.45;;;10.80;99.90;;;;;;6161027;23;20005;-85
2023/05/17 02:23:33;;;;;;;9.45;4.30;;;10.80;99.90;;;;;;6136332;23;20101;-84
2023/05/17 02:25:59;;;;;;;14.80;4.55;;;10.80;99.90;;;;;;6135870;23;20045;-84
2023/05/17 02:28:26;;;;;;;10.98;4.07;;;10.80;99.90;;;;;;6161042;23;20009;-84
2023/05/17 02:30:52;;;;;;;11.13;4.45;;;10.80;99.90;;;;;;6186833;23;20370;-85
2023/05/17 02:33:17;;;;;;;8.35;4.20;;;10.80;99.90;;;;;;6136011;23;20021;-85
2023/05/17 02:35:43;;;;;;;12.68;4.63;;;10.80;99.90;;;;;;6186985;23;20063;-85
2023/05/17 02:38:08;;;;;;;9.27;4.47;;;10.80;99.90;;;;;;6160926;23;20008;-84
2023/05/17 02:40:34;;;;;;;11.23;5.10;;;10.80;99.90;;;;;;6135519;23;20005;-84
2023/05/17 02:43:00;;;;;;;11.52;4.28;;;10.80;99.90;;;;;;6160748;23;20017;-84
2023/05/17 02:45:25;;;;;;;9.13;4.15;;;10.90;99.90;;;;;;6136093;23;20012;-85
2023/05/17 02:47:51;;;;;;;13.13;4.45;;;10.90;99.90;;;;;;6136172;23;20013;-84
2023/05/17 02:50:17;;;;;;;12.77;5.22;;;10.90;99.90;;;;;;6160469;23;20016;-84
2023/05/17 02:52:42;;;;;;;10.10;4.63;;;10.90;99.90;;;;;;6135589;23;20056;-84
2023/05/17 02:55:08;;;;;;;12.13;4.60;;;11.00;99.90;;;;;;6186739;23;20431;-84
2023/05/17 02:57:34;;;;;;;10.85;4.82;;;11.00;99.90;;;;;;6160776;23;20005;-84
2023/05/17 02:59:59;;;;;;;11.45;4.38;;;11.00;99.90;;;;;;6135750;23;20005;-84
2023/05/17 03:02:25;;;;;;;10.57;5.05;;;11.00;99.90;;;;;;6160451;23;20012;-84
2023/05/17 03:04:51;;;;;;;12.55;4.75;;;11.10;99.90;;;;;;6161088;23;20011;-85
2023/05/17 03:07:17;;;;;;;8.50;4.05;;;11.10;99.90;;;;;;6160485;23;20097;-84
2023/05/17 03:09:42;;;;;;;14.98;5.05;;;11.10;99.90;;;;;;6136136;23;20006;-84
2023/05/17 03:12:08;;;;;;;14.60;4.68;;;11.10;99.90;;;;;;6160832;23;20032;-84
2023/05/17 03:14:34;;;;;;;13.85;5.45;;;11.10;99.90;;;;;;6136295;23;20443;-84
2023/05/17 03:16:59;;;;;;;12.73;4.80;;;11.10;99.90;;;;;;6161260;23;20051;-84
2023/05/17 03:19:25;;;;;;;13.60;5.10;;;11.10;99.90;;;;;;6187803;23;20012;-84
2023/05/17 03:21:51;;;;;;;14.35;5.65;;;11.10;99.90;;;;;;6203195;23;20057;-84
2023/05/17 03:24:16;;;;;;;12.90;4.68;;;11.10;99.90;;;;;;6163321;23;19993;-82
2023/05/17 03:26:42;;;;;;;15.98;5.47;;;11.10;99.90;;;;;;6188398;23;19989;-84
2023/05/17 03:29:07;;;;;;;12.93;4.82;;;11.10;99.90;;;;;;6163821;23;20001;-84
2023/05/17 03:31:33;;;;;;;13.82;5.30;;;11.10;99.90;;;;;;6169928;23;20017;-84
2023/05/17 03:33:59;;;;;;;15.98;5.25;;;11.10;99.90;;;;;;6162178;23;20087;-84
2023/05/17 03:36:25;;;;;;;15.05;5.80;;;11.10;99.90;;;;;;6186896;23;20081;-84
2023/05/17 03:38:50;;;;;;;14.10;5.32;;;11.20;99.90;;;;;;6186925;23;20064;-85
2023/05/17 03:41:16;;;;;;;10.05;4.63;;;11.20;99.90;;;;;;6135555;23;20549;-84
2023/05/17 03:43:42;;;;;;;13.43;5.18;;;11.20;99.90;;;;;;6135483;23;20001;-84
2023/05/17 03:46:07;;;;;;;11.68;4.80;;;11.20;99.90;;;;;;6160345;23;20005;-84
2023/05/17 03:48:33;;;;;;;13.10;4.88;;;11.30;99.90;;;;;;6160057;23;20016;-84
2023/05/17 03:50:59;;;;;;;12.68;4.60;;;11.30;99.90;;;;;;6160262;23;20060;-84
2023/05/17 03:53:25;;;;;;;12.07;4.68;;;11.30;99.90;;;;;;6160281;23;20371;-84
2023/05/17 03:55:50;;;;;;;12.00;4.95;;;11.30;99.90;;;;;;6186539;23;20001;-84
2023/05/17 03:58:17;;;;;;;13.50;5.35;;;11.30;99.90;;;;;;6135635;23;20001;-84
2023/05/17 04:00:42;;;;;;;11.60;4.93;;;11.40;99.90;;;;;;6159976;23;20420;-84
2023/05/17 04:03:08;;;;;;;15.32;5.40;;;11.40;99.90;;;;;;6159371;23;20001;-84
2023/05/17 04:05:33;;;;;;;11.90;4.80;;;11.40;99.90;;;;;;6184364;23;20014;-84
2023/05/17 04:08:00;;;;;;;10.68;4.65;;;11.30;99.90;;;;;;6186260;23;20379;-84
2023/05/17 04:10:25;;;;;;;13.60;4.70;;;11.40;99.90;;;;;;6159922;23;20084;-84
2023/05/17 04:12:51;;;;;;;10.57;4.10;;;11.40;99.90;;;;;;6185999;23;20025;-84
2023/05/17 04:15:17;;;;;;;10.48;4.28;;;11.40;99.90;;;;;;6135026;23;20016;-84
2023/05/17 04:17:42;;;;;;;12.25;5.13;;;11.40;99.90;;;;;;6185477;23;20055;-84
2023/05/17 04:20:08;;;;;;;12.68;4.60;;;11.40;99.90;;;;;;6160083;23;20435;-84
2023/05/17 04:22:34;;;;;;;12.23;5.32;;;11.40;99.90;;;;;;6186087;23;20005;-84
2023/05/17 04:25:00;;;;;;;10.68;4.90;;;11.40;99.90;;;;;;6159732;23;20044;-84
2023/05/17 04:27:25;;;;;;;14.07;5.07;;;11.30;99.90;;;;;;6134821;23;20032;-84
2023/05/17 04:29:51;;;;;;;13.50;4.72;;;11.30;99.90;;;;;;6159941;23;20055;-84
2023/05/17 04:32:17;;;;;;;8.95;4.47;;;11.30;99.90;;;;;;6135139;23;20017;-84
2023/05/17 04:34:43;;;;;;;11.45;4.53;;;11.20;99.90;;;;;;6135280;23;20005;-84
2023/05/17 04:37:08;;;;;;;16.70;4.90;;;11.20;99.90;;;;;;6159656;23;20009;-84
2023/05/17 04:39:34;;;;;;;9.85;4.45;;;11.20;99.90;;;;;;6134998;23;20005;-84
2023/05/17 04:42:01;;;;;;;12.98;4.65;;;11.10;99.90;;;;;;6159398;23;20092;-85
2023/05/17 04:44:26;;;;;;;9.07;4.05;;;11.10;99.90;;;;;;6135293;23;20055;-85
2023/05/17 04:46:52;;;;;;;12.30;4.55;;;11.10;99.90;;;;;;6160349;23;20010;-85
2023/05/17 04:49:18;;;;;;;8.65;4.32;;;11.00;99.90;;;;;;6160106;23;20025;-84
2023/05/17 04:51:43;;;;;;;12.13;4.30;;;11.00;99.90;;;;;;6192769;23;20008;-84
2023/05/17 04:54:09;;;;;;;7.53;4.20;;;11.00;99.90;;;;;;6158345;23;20049;-84
2023/05/17 04:56:35;;;;;;;8.93;4.28;;;10.90;99.90;;;;;;6161431;23;19996;-82
2023/05/17 04:59:01;;;;;;;11.27;5.10;;;10.90;99.90;;;;;;6212748;23;19996;-83
2023/05/17 05:01:30;;;;;;;10.40;4.80;;;11.00;99.90;;;;;;6162690;23;19993;-81
2023/05/17 05:03:59;;;;;;;11.05;5.07;;;11.00;99.90;;;;;;6187627;23;20001;-82
2023/05/17 05:06:24;;;;;;;11.68;5.00;;;11.10;99.90;;;;;;6149260;23;20001;-82
2023/05/17 05:08:50;;;;;;;9.05;4.93;;;11.10;99.90;;;;;;6163042;23;20013;-82
2023/05/17 05:11:16;;;;;;;10.35;5.22;;;11.20;99.90;;;;;;6138334;23;20090;-83
2023/05/17 05:13:41;;;;;;;9.98;4.85;;;11.20;99.90;;;;;;6162018;23;20419;-83
2023/05/17 05:16:07;;;;;;;9.45;4.90;;;11.30;99.90;;;;;;6161624;23;20005;-83
2023/05/17 05:18:33;;;;;;;13.15;5.28;;;11.40;99.90;;;;;;6136821;23;20024;-83
2023/05/17 05:20:59;;;;;;;11.45;5.50;;;11.40;99.90;;;;;;6161643;23;20001;-83
2023/05/17 05:23:25;;;;;;;14.30;4.90;;;11.50;99.90;;;;;;6136586;23;20091;-83
2023/05/17 05:25:50;;;;;;;12.93;5.65;;;11.60;99.90;;;;;;6136652;23;20044;-82
2023/05/17 05:28:16;;;;;;;14.68;4.68;;;11.60;99.90;;;;;;6161176;23;20005;-82
2023/05/17 05:30:42;;;;;;;12.07;5.03;;;11.60;99.90;;;;;;6136626;23;20038;-82
2023/05/17 05:33:08;;;;;;;15.35;4.55;;;11.70;99.90;;;;;;6136065;23;20347;-82
2023/05/17 05:35:33;;;;;;;11.88;4.13;;;11.80;99.90;;;;;;6136486;23;20009;-82
2023/05/17 05:37:59;;;;;;;9.82;3.92;;;11.80;99.90;;;;;;6136727;23;20105;-83
2023/05/17 05:40:25;;;;;;;11.20;4.57;;;11.90;99.90;;;;;;6136493;23;20016;-83
2023/05/17 05:42:52;;;;;;;12.95;5.10;;;11.90;99.90;;;;;;6161373;23;20032;-82
2023/05/17 05:45:18;;;;;;;9.70;4.50;;;11.90;99.90;;;;;;6161111;23;20028;-82
2023/05/17 05:47:44;;;;;;;15.32;5.10;;;12.00;99.90;;;;;;6160884;23;20423;-82
2023/05/17 05:50:10;;;;;;;14.23;4.70;;;12.00;99.90;;;;;;6160711;23;20104;-83
2023/05/17 05:52:36;;;;;;;11.48;4.88;;;12.00;99.90;;;;;;6160857;23;20032;-82
2023/05/17 05:55:01;;;;;;;12.13;5.50;;;12.10;99.90;;;;;;6187583;23;20420;-83
2023/05/17 05:57:27;;;;;;;15.65;5.00;;;12.10;99.90;;;;;;6136442;23;20059;-82
2023/05/17 05:59:53;;;;;;;11.02;4.78;;;12.10;99.90;;;;;;6136303;23;20040;-82
2023/05/17 06:02:19;;;;;;;11.18;4.60;;;12.20;99.90;;;;;;6136597;23;20032;-82
2023/05/17 06:04:47;;;;;;;12.68;4.95;;;12.20;99.90;;;;;;6161060;23;20412;-81
2023/05/17 06:07:14;;;;;;;11.88;4.57;;;12.30;99.90;;;;;;6160533;23;20008;-82
2023/05/17 06:09:40;;;;;;;11.55;3.90;;;12.30;99.90;;;;;;6161059;23;20032;-82
2023/05/17 06:12:06;;;;;;;10.90;4.25;;;12.30;99.90;;;;;;6136726;23;20327;-83
2023/05/17 06:14:32;;;;;;;13.30;4.00;;;12.30;99.90;;;;;;6136381;23;20084;-83
2023/05/17 06:16:57;;;;;;;13.60;4.10;;;12.30;99.90;;;;;;6160911;23;20025;-82
2023/05/17 06:19:23;;;;;;;13.50;4.05;;;12.40;99.90;;;;;;6136649;23;20005;-82
2023/05/17 06:21:49;;;;;;;14.63;4.30;;;12.40;99.90;;;;;;6136640;23;20001;-82
2023/05/17 06:24:15;;;;;;;16.25;4.68;;;12.30;99.90;;;;;;6137084;23;20013;-83
2023/05/17 06:26:42;;;;;;;15.27;3.95;;;12.20;99.90;;;;;;6150615;23;20001;-82
2023/05/17 06:29:08;;;;;;;15.25;4.25;;;12.20;99.90;;;;;;6156375;23;20017;-82
2023/05/17 06:31:34;;;;;;;14.32;3.95;;;12.10;99.90;;;;;;6186467;23;20000;-82
2023/05/17 06:34:00;;;;;;;11.52;3.17;;;12.10;99.90;;;;;;6161087;23;20008;-82
2023/05/17 06:36:25;;;;;;;10.30;3.70;;;12.20;99.90;;;;;;6172968;23;20001;-82
2023/05/17 06:38:51;;;;;;;11.18;2.95;;;12.20;99.90;;;;;;6141327;23;20051;-82
2023/05/17 06:41:17;;;;;;;12.77;3.70;;;12.30;99.90;;;;;;6188206;23;20009;-82
2023/05/17 06:43:42;;;;;;;11.60;3.05;;;12.30;99.90;;;;;;6161071;23;20372;-82
2023/05/17 06:46:08;;;;;;;10.48;2.80;;;12.30;99.90;;;;;;6187075;23;20436;-81
2023/05/17 06:48:34;;;;;;;11.68;2.95;;;12.20;99.90;;;;;;6160849;23;20017;-82
2023/05/17 06:50:59;;;;;;;15.80;3.95;;;12.20;99.90;;;;;;6160610;23;20032;-83
2023/05/17 06:53:26;;;;;;;11.48;3.00;;;12.20;99.90;;;;;;6160844;23;20032;-82
2023/05/17 06:55:51;;;;;;;9.38;2.50;;;12.10;99.90;;;;;;6160797;23;20005;-82
2023/05/17 06:58:17;;;;;;;14.00;2.53;;;12.20;99.90;;;;;;6160566;23;20477;-82
2023/05/17 07:00:43;;;;;;;10.93;2.72;;;12.30;99.90;;;;;;6160684;23;20027;-83
2023/05/17 07:03:08;;;;;;;9.05;2.20;;;12.40;99.90;;;;;;6136114;23;20064;-82
2023/05/17 07:05:35;;;;;;;7.68;2.20;;;12.40;99.90;;;;;;6136085;23;20032;-82
2023/05/17 07:08:00;;;;;;;13.73;3.08;;;12.40;99.90;;;;;;6135743;23;20090;-82
2023/05/17 07:10:26;;;;;;;10.38;2.72;;;12.50;99.90;;;;;;6160430;23;20490;-82
2023/05/17 07:12:52;;;;;;;9.77;2.65;;;12.50;99.90;;;;;;6135806;23;20416;-82
2023/05/17 07:15:18;;;;;;;13.07;2.25;;;12.50;99.90;;;;;;6160596;23;20004;-82
2023/05/17 07:17:43;;;;;;;7.10;2.05;;;12.60;99.90;;;;;;6160458;23;20031;-82
2023/05/17 07:20:10;;;;;;;9.77;2.10;;;12.70;99.90;;;;;;6135853;23;20327;-83
2023/05/17 07:22:36;;;;;;;12.45;3.28;;;12.70;99.90;;;;;;6185088;23;20005;-82
2023/05/17 07:25:02;;;;;;;6.47;1.75;;;12.70;99.90;;;;;;6135632;23;20017;-82
2023/05/17 07:27:28;;;;;;;9.75;2.50;;;12.60;99.90;;;;;;6160195;23;20017;-82
2023/05/17 07:29:54;;;;;;;13.18;2.38;;;12.70;99.90;;;;;;6135625;23;20002;-82
2023/05/17 07:32:19;;;;;;;9.82;2.33;;;12.80;99.90;;;;;;6186501;23;20084;-83
2023/05/17 07:34:45;;;;;;;10.48;2.55;;;12.80;99.90;;;;;;6135644;23;20015;-82
2023/05/17 07:37:11;;;;;;;10.63;2.50;;;12.90;99.40;;;;;;6135607;23;20084;-83
2023/05/17 07:39:36;;;;;;;10.20;2.45;;;12.90;99.10;;;;;;6135558;23;20514;-82
2023/05/17 07:42:02;;;;;;;10.32;2.38;;;13.00;99.10;;;;;;6160100;23;20332;-83
2023/05/17 07:44:28;;;;;;;10.57;2.40;;;12.90;99.00;;;;;;6160259;23;20302;-82
2023/05/17 07:46:53;;;;;;;7.82;2.33;;;13.00;99.10;;;;;;6135389;23;20001;-82
2023/05/17 07:49:19;;;;;;;6.43;1.70;;;13.10;99.40;;;;;;6159866;23;20083;-83
2023/05/17 07:51:45;;;;;;;9.48;2.60;;;13.20;99.50;;;;;;6135407;23;20001;-82
2023/05/17 07:54:26;;;;;;;7.65;1.80;;;13.30;99.50;;;;;;6135780;23;20005;-83
2023/05/17 07:56:53;;;;;;;7.18;2.47;;;13.40;99.50;;;;;;6159830;23;19997;-82
2023/05/17 07:59:20;;;;;;;6.03;1.80;;;13.50;99.40;;;;;;6136809;23;20009;-82
2023/05/17 08:01:45;;;;;;;7.75;1.70;;;13.50;99.30;;;;;;6137477;23;20041;-83
2023/05/17 08:04:13;;;;;;;8.05;1.98;;;13.60;99.20;;;;;;6183780;23;19985;-82
2023/05/17 08:06:39;;;;;;;5.45;2.08;;;13.50;99.00;;;;;;6162764;23;20008;-82
2023/05/17 08:09:05;;;;;;;9.45;1.88;;;13.60;98.90;;;;;;6187658;23;20021;-82
2023/05/17 08:11:33;;;;;;;8.02;2.10;;;13.60;98.90;;;;;;6212510;23;19996;-83
2023/05/17 08:13:59;;;;;;;6.15;1.85;;;13.70;98.80;;;;;;6212466;23;20001;-82
2023/05/17 08:16:25;;;;;;;7.15;1.95;;;13.70;98.40;;;;;;6179376;23;20363;-82
2023/05/17 08:18:51;;;;;;;7.18;1.90;;;13.80;98.40;;;;;;6145942;23;20036;-82
2023/05/17 08:21:16;;;;;;;7.13;1.92;;;13.80;98.10;;;;;;6161949;23;20427;-82
2023/05/17 08:23:43;;;;;;;6.95;2.15;;;13.70;97.90;;;;;;6161530;23;20008;-82
2023/05/17 08:26:08;;;;;;;7.35;1.58;;;13.70;97.60;;;;;;6160506;23;20015;-82
2023/05/17 08:28:34;;;;;;;7.93;1.80;;;13.70;97.40;;;;;;6161566;23;20088;-83
2023/05/17 08:31:00;;;;;;;6.57;1.80;;;13.70;97.00;;;;;;6136269;23;20008;-83
2023/05/17 08:33:26;;;;;;;6.78;1.73;;;13.60;96.90;;;;;;6187270;23;20059;-82
2023/05/17 08:35:56;;;;;;;9.27;1.80;;;13.60;96.30;;;;;;6160987;23;20308;-81
2023/05/17 08:38:22;;;;;;;6.82;1.75;;;13.50;96.00;;;;;;6136239;23;20039;-82
2023/05/17 08:40:55;;;;;;;4.80;1.73;;;13.40;95.40;;;;;;6160393;23;20016;-80
2023/05/17 08:43:22;;;;;;;8.73;2.10;;;13.40;95.10;;;;;;6135571;23;20059;-82
2023/05/17 08:45:52;;;;;;;6.65;1.88;;;13.30;94.70;;;;;;6160009;23;20421;-82
2023/05/17 08:48:21;;;;;;;4.90;1.38;;;13.30;94.90;;;;;;6185526;23;20473;-82
2023/05/17 08:50:49;;;;;;;7.45;1.88;;;13.40;95.00;;;;;;6187836;23;20004;-82
2023/05/17 08:53:16;;;;;;;5.78;1.52;;;13.40;94.40;;;;;;6161238;23;20079;-82
2023/05/17 08:55:48;;;;;;;8.32;1.63;;;13.40;94.60;;;;;;6185095;23;20423;-83
2023/05/17 08:58:18;;;;;;;5.40;2.00;;;13.30;94.30;;;;;;6136692;23;20331;-82
2023/05/17 09:00:45;;;;;;;7.45;1.90;;;13.40;94.30;;;;;;6187118;23;20368;-82
2023/05/17 09:03:16;;;;;;;5.05;1.58;;;13.40;94.00;;;;;;6160559;23;20107;-82
2023/05/17 09:05:42;;;;;;;3.80;1.75;;;13.40;93.80;;;;;;6187316;23;20001;-82
2023/05/17 09:08:12;;;;;;;4.85;1.42;;;13.50;93.70;;;;;;6159957;23;20017;-83
2023/05/17 09:10:41;;;;;;;5.30;1.50;;;13.50;93.50;;;;;;6161108;23;20005;-82
2023/05/17 09:13:11;;;;;;;6.90;1.83;;;13.50;93.60;;;;;;6186129;23;20002;-82
2023/05/17 09:15:37;;;;;;;6.47;1.70;;;13.50;93.10;;;;;;6160608;23;20009;-82
2023/05/17 09:18:02;;;;;;;3.15;1.52;;;13.60;93.20;;;;;;6186334;23;20002;-82
2023/05/17 09:20:35;;;;;;;6.18;1.70;;;13.70;93.30;;;;;;6186896;23;19998;-82
2023/05/17 09:23:01;;;;;;;7.70;1.48;;;13.80;93.50;;;;;;6160203;23;20446;-82
2023/05/17 09:25:28;;;;;;;4.93;1.30;;;13.90;93.40;;;;;;6160286;23;20009;-82
2023/05/17 09:27:55;;;;;;;4.25;1.60;;;13.90;93.30;;;;;;6135755;23;20076;-83
2023/05/17 09:30:32;;;;;;;6.95;1.73;;;14.00;93.20;;;;;;6160481;23;20005;-82
2023/05/17 09:33:07;;;;;;;6.10;1.92;;;14.00;92.30;;;;;;6160493;23;20045;-82
2023/05/17 09:35:35;;;;;;;4.43;1.60;;;14.00;91.70;;;;;;6188299;23;20001;-83
2023/05/17 09:38:12;;;;;;;5.30;1.65;;;14.10;92.00;;;;;;6161137;23;20029;-85
2023/05/17 09:40:43;;;;;;;5.22;1.58;;;14.10;91.80;;;;;;6160276;23;20332;-83
2023/05/17 09:43:10;;;;;;;5.00;1.38;;;14.20;91.40;;;;;;6164808;23;20020;-82
2023/05/17 09:45:36;;;;;;;4.18;1.15;;;14.20;91.10;;;;;;6183981;23;20012;-82
2023/05/17 09:48:18;;;;;;;4.07;1.13;;;14.20;91.00;;;;;;6187219;23;20069;-82
2023/05/17 09:50:47;;;;;;;4.80;1.42;;;14.20;91.10;;;;;;6214271;23;20049;-81
2023/05/17 09:53:29;;;;;;;5.72;1.15;;;14.30;91.10;;;;;;6207065;23;20056;-84
2023/05/17 09:55:57;;;;;;;6.57;1.80;;;14.40;91.00;;;;;;6197525;23;20072;-83
2023/05/17 09:58:24;;;;;;;5.78;1.58;;;14.40;90.20;;;;;;6162239;23;20040;-84
2023/05/17 10:00:55;;;;;;;5.25;1.77;;;14.50;90.30;;;;;;6188479;23;20004;-85
2023/05/17 10:03:21;;;;;;;;;;;14.40;90.20;;;;;;6162742;23;20009;-84
2023/05/17 10:05:51;;;;;;;7.95;1.80;;;14.40;90.40;;;;;;6137127;23;20250;-85
2023/05/17 10:08:20;;;;;;;4.68;1.30;;;14.50;90.30;;;;;;6137444;23;20009;-85
2023/05/17 10:10:48;;;;;;;5.90;1.30;;;14.50;90.30;;;;;;6162775;23;20001;-84
2023/05/17 10:13:17;;;;;;;2.80;1.20;;;14.60;90.20;;;;;;6186260;23;20005;-84
2023/05/17 10:15:43;;;;;;;4.53;1.30;;;14.60;90.00;;;;;;6161653;23;19997;-84
2023/05/17 10:18:10;;;;;;;4.18;1.27;;;14.70;87.90;;;;;;6161958;23;20032;-83
2023/05/17 10:20:36;;;;;;;4.72;1.40;;;14.60;87.60;;;;;;6191078;23;20005;-82
2023/05/17 10:23:05;;;;;;;6.32;1.80;;;14.70;88.10;;;;;;6187291;23;20328;-83
2023/05/17 10:25:31;;;;;;;10.90;1.55;;;14.70;87.70;;;;;;6162142;23;20032;-83
2023/05/17 10:27:58;;;;;;;4.60;1.38;;;14.70;87.80;;;;;;6188707;23;20301;-83
2023/05/17 10:30:27;;;;;;;4.93;1.52;;;14.70;87.20;;;;;;6162250;23;20008;-83
2023/05/17 10:32:53;;;;;;;3.95;1.40;;;14.70;85.90;;;;;;6169897;23;20068;-84
2023/05/17 10:35:19;;;;;;;5.63;1.40;;;14.70;85.30;;;;;;6158187;23;20009;-84
2023/05/17 10:37:45;;;;;;;4.60;1.58;;;14.70;84.80;;;;;;6108510;23;20044;-85
2023/05/17 10:40:16;;;;;;;3.58;0.90;;;14.70;84.00;;;;;;6131619;23;20412;-85
2023/05/17 10:42:49;;;;;;;4.53;1.27;;;14.70;83.60;;;;;;6158503;23;20006;-84
2023/05/17 10:45:15;;;;;;;4.40;1.10;;;14.80;84.10;;;;;;6132043;23;20028;-85
2023/05/17 10:47:42;;;;;;;5.50;1.48;;;14.80;84.00;;;;;;6160758;23;20056;-84
2023/05/17 10:50:13;;;;;;;3.25;1.30;;;14.90;84.40;;;;;;6135468;23;20309;-84
2023/05/17 10:52:46;;;;;;;5.40;1.40;;;15.00;83.60;;;;;;6157750;23;20001;-84
2023/05/17 10:55:11;;;;;;;5.25;1.30;;;15.00;82.30;;;;;;6131102;23;19998;-84
2023/05/17 10:57:37;;;;;;;5.35;1.50;;;15.10;81.70;;;;;;6131128;23;20094;-84
2023/05/17 11:00:09;;;;;;;5.80;1.77;;;15.10;81.50;;;;;;6130706;23;20005;-84
2023/05/17 11:02:41;;;;;;;5.35;1.38;;;15.10;81.70;;;;;;6107608;23;20057;-84
2023/05/17 11:05:21;;;;;;;3.92;1.02;;;15.10;81.00;;;;;;6130933;23;20060;-84
2023/05/17 11:07:49;;;;;;;4.13;1.25;;;15.10;80.90;;;;;;6131177;23;20033;-85
2023/05/17 11:10:16;;;;;;;5.85;1.63;;;15.20;81.10;;;;;;6130866;23;20005;-84
2023/05/17 11:12:43;;;;;;;5.22;1.35;;;15.30;81.90;;;;;;6107182;23;20013;-84
2023/05/17 11:15:14;;;;;;;3.50;1.10;;;15.40;81.70;;;;;;6155649;23;20005;-84
2023/05/17 11:17:45;;;;;;;3.65;1.40;;;15.40;81.60;;;;;;6131938;23;20017;-85
2023/05/17 11:20:14;;;;;;;6.53;1.63;;;15.50;81.00;;;;;;6158214;23;20001;-84
2023/05/17 11:23:03;;;;;;;5.15;1.60;;;15.50;81.00;;;;;;6158222;23;20323;-84
2023/05/17 11:25:41;;;;;;;4.97;1.48;;;15.50;80.00;;;;;;6145677;23;20001;-83
2023/05/17 11:28:07;;;;;;;4.88;1.38;;;15.50;80.60;;;;;;6131242;23;20024;-83
2023/05/17 11:30:40;;;;;;;5.38;1.60;;;15.50;79.30;;;;;;6157751;23;20049;-82
2023/05/17 11:33:06;;;;;;;2.97;1.30;;;15.50;79.60;;;;;;6157907;23;20057;-84
2023/05/17 11:35:35;;;;;;;3.95;1.48;;;15.50;80.00;;;;;;6131075;23;20010;-85
2023/05/17 11:38:22;;;;;;;5.47;1.83;;;15.50;80.50;;;;;;6160481;23;20084;-85
2023/05/17 11:40:55;;;;;;;8.15;1.75;;;15.60;80.20;;;;;;6133860;23;20027;-84
2023/05/17 11:43:26;;;;;;;4.63;1.52;;;15.70;80.30;;;;;;6158069;23;20001;-86
2023/05/17 11:45:53;;;;;;;;;;;15.80;80.40;;;;;;6132458;23;20012;-85
2023/05/17 11:48:21;;;;;;;4.93;1.45;;;15.80;79.40;;;;;;6158233;23;19944;-85
2023/05/17 11:50:52;;;;;;;5.22;1.48;;;15.80;77.90;;;;;;6107523;23;20002;-85
2023/05/17 11:53:18;;;;;;;;;;;15.80;78.50;;;;;;6158459;23;20006;-85
2023/05/17 11:55:49;;;;;;;4.55;1.40;;;15.90;79.30;;;;;;6132165;23;19947;-83
2023/05/17 11:58:16;;;;;;;;;;;15.90;79.10;;;;;;6159214;23;20009;-84
2023/05/17 12:00:51;;;;;;;4.57;1.58;;;15.90;77.30;;;;;;6131279;23;19900;-83
2023/05/17 12:03:18;;;;;;;3.47;1.00;;;15.90;77.30;;;;;;6131938;23;20002;-85
2023/05/17 12:05:46;;;;;;;8.70;1.80;;;16.00;77.90;;;;;;6156777;23;20001;-84
2023/05/17 12:08:16;;;;;;;5.20;1.48;;;16.00;78.00;;;;;;6131706;23;20041;-84
2023/05/17 12:10:48;;;;;;;6.85;2.08;;;16.10;78.30;;;;;;6131620;23;20002;-84
2023/05/17 12:13:13;;;;;;;7.18;1.60;;;16.10;76.80;;;;;;6131495;23;20033;-84
2023/05/17 12:15:43;;;;;;;5.22;1.90;;;16.10;75.50;;;;;;6131478;23;20060;-84
2023/05/17 12:18:15;;;;;;;5.53;1.55;;;16.10;76.10;;;;;;6133195;23;20013;-84
2023/05/17 12:20:57;;;;;;;6.13;1.80;;;16.10;76.80;;;;;;6107964;23;20442;-84
2023/05/17 12:23:35;;;;;;;5.82;1.63;;;16.20;76.40;;;;;;6108020;23;20390;-85
2023/05/17 12:26:15;;;;;;;5.95;1.85;;;16.30;77.20;;;;;;6132269;23;20004;-84
2023/05/17 12:28:46;;;;;;;6.35;1.83;;;16.40;77.80;;;;;;6158163;23;20360;-86
2023/05/17 12:31:17;;;;;;;5.68;1.70;;;16.40;76.70;;;;;;6131695;23;20002;-82
2023/05/17 12:33:44;;;;;;;7.90;2.30;;;16.40;75.50;;;;;;6185460;23;20016;-85
2023/05/17 12:36:14;;;;;;;6.22;1.70;;;16.40;74.60;;;;;;6187950;23;20297;-84
2023/05/17 12:38:42;;;;;;;7.72;2.22;;;16.40;75.40;;;;;;6136636;23;20039;-85
2023/05/17 12:41:13;;;;;;;4.22;1.52;;;16.40;75.20;;;;;;6187795;23;20493;-83
2023/05/17 12:43:39;;;;;;;5.45;1.90;;;16.40;74.60;;;;;;6161585;23;20005;-85
2023/05/17 12:46:13;;;;;;;6.72;2.08;;;16.40;74.20;;;;;;6136422;23;20016;-84